Time;durP1;ratioP1;P1;durP2;ratioP2;P2;SDS_P1;SDS_P2;PMS_P1;PMS_P2;Temp;Humidity;BMP_temperature;BMP_pressure;BME280_temperature;BME280_humidity;BME280_pressure;Samples;Min_cycle;Max_cycle;Signal;HPM_P1;HPM_P2
2022/10/06 00:02:21;;;;;;;;;;;12.90;99.90;;;;;;5003273;28;19913;-77
2022/10/06 00:04:46;;;;;;;;;;;12.90;99.90;;;;;;5002432;28;20108;-78
2022/10/06 00:07:13;;;;;;;;;;;12.90;99.90;;;;;;5002532;28;20180;-77
2022/10/06 00:09:39;;;;;;;;;;;12.90;99.90;;;;;;5001859;28;20445;-77
2022/10/06 00:12:05;;;;;;;;;;;12.90;99.90;;;;;;5003148;28;19918;-77
2022/10/06 00:14:30;;;;;;;;;;;12.80;99.90;;;;;;5001979;28;19909;-78
2022/10/06 00:16:56;;;;;;;;;;;12.90;99.90;;;;;;5002798;28;19909;-78
2022/10/06 00:19:21;;;;;;;;;;;12.80;99.90;;;;;;5005786;28;20230;-78
2022/10/06 00:21:47;;;;;;;;;;;12.80;99.90;;;;;;5007083;28;20156;-79
2022/10/06 00:24:13;;;;;;;;;;;12.80;99.90;;;;;;5006826;28;19914;-79
2022/10/06 00:26:38;;;;;;;;;;;12.80;99.90;;;;;;5005558;28;19918;-79
2022/10/06 00:29:04;;;;;;;;;;;12.80;99.90;;;;;;5005873;28;19929;-79
2022/10/06 00:31:30;;;;;;;;;;;12.80;99.90;;;;;;5005823;28;19961;-79
2022/10/06 00:33:55;;;;;;;;;;;12.80;99.90;;;;;;5005843;28;19909;-79
2022/10/06 00:36:21;;;;;;;;;;;12.80;99.90;;;;;;5005498;28;19917;-80
2022/10/06 00:38:47;;;;;;;;;;;12.80;99.90;;;;;;5005577;28;20339;-79
2022/10/06 00:41:13;;;;;;;;;;;12.80;99.90;;;;;;5005640;28;20108;-79
2022/10/06 00:43:44;;;;;;;;;;;12.80;99.90;;;;;;4989223;28;19937;-79
2022/10/06 00:46:30;;;;;;;;;;;12.80;99.90;;;;;;5021383;28;19910;-79
2022/10/06 00:49:13;;;;;;;;;;;12.80;99.90;;;;;;5006326;28;19945;-78
2022/10/06 00:51:41;;;;;;;;;;;12.80;99.90;;;;;;5005480;28;19987;-79
2022/10/06 00:54:07;;;;;;;;;;;12.80;99.90;;;;;;5005117;28;19910;-79
2022/10/06 00:56:33;;;;;;;;;;;12.80;99.90;;;;;;5004915;28;19952;-79
2022/10/06 00:58:59;;;;;;;;;;;12.80;99.90;;;;;;5005277;28;19910;-79
2022/10/06 01:01:25;;;;;;;;;;;12.80;99.90;;;;;;5005169;28;19953;-79
2022/10/06 01:03:54;;;;;;;;;;;12.80;99.90;;;;;;5005092;28;19973;-79
2022/10/06 01:06:20;;;;;;;;;;;12.80;99.90;;;;;;5004945;28;19985;-79
2022/10/06 01:08:45;;;;;;;;;;;12.90;99.90;;;;;;5004853;28;19916;-79
2022/10/06 01:11:15;;;;;;;;;;;12.80;99.90;;;;;;5005414;28;20012;-81
2022/10/06 01:13:44;;;;;;;;;;;12.80;99.90;;;;;;5005624;28;20086;-80
2022/10/06 01:16:20;;;;;;;;;;;12.80;99.90;;;;;;5005120;28;19989;-80
2022/10/06 01:18:46;;;;;;;;;;;12.80;99.90;;;;;;5005667;28;19909;-81
2022/10/06 01:21:27;;;;;;;;;;;12.70;99.90;;;;;;5005636;28;19910;-81
2022/10/06 01:23:53;;;;;;;;;;;12.70;99.90;;;;;;5004387;28;20153;-81
2022/10/06 01:26:19;;;;;;;;;;;12.70;99.90;;;;;;5005090;28;19910;-81
2022/10/06 01:28:45;;;;;;;;;;;12.70;99.90;;;;;;5004631;28;19917;-79
2022/10/06 01:31:11;;;;;;;;;;;12.70;99.90;;;;;;5004695;28;19913;-80
2022/10/06 01:33:36;;;;;;;;;;;12.70;99.90;;;;;;5004770;28;20156;-79
2022/10/06 01:36:03;;;;;;;;;;;12.70;99.90;;;;;;5004522;28;19909;-79
2022/10/06 01:38:29;;;;;;;;;;;12.70;99.90;;;;;;5030645;23;19929;-75
2022/10/06 01:40:54;;;;;;;;;;;12.70;99.90;;;;;;5017080;28;19976;-75
2022/10/06 01:43:20;;;;;;;;;;;12.70;99.90;;;;;;5025276;28;19909;-75
2022/10/06 01:45:52;;;;;;;;;;;12.70;99.90;;;;;;5040706;28;19977;-75
2022/10/06 01:48:18;;;;;;;;;;;12.60;99.90;;;;;;5040283;28;19918;-75
2022/10/06 01:50:43;;;;;;;;;;;12.60;99.90;;;;;;5025166;28;20151;-74
2022/10/06 01:53:09;;;;;;;;;;;12.60;99.90;;;;;;5025016;28;19909;-76
2022/10/06 01:55:35;;;;;;;;;;;12.60;99.90;;;;;;5024916;28;19909;-75
2022/10/06 01:58:00;;;;;;;;;;;12.60;99.90;;;;;;5023578;28;19926;-75
2022/10/06 02:00:26;;;;;;;;;;;12.50;99.90;;;;;;5007586;28;19916;-76
2022/10/06 02:02:52;;;;;;;;;;;12.60;99.90;;;;;;5023830;28;20262;-75
2022/10/06 02:05:17;;;;;;;;;;;12.50;99.90;;;;;;5023762;28;19917;-75
2022/10/06 02:07:43;;;;;;;;;;;12.50;99.90;;;;;;5018597;28;20355;-75
2022/10/06 02:10:09;;;;;;;;;;;12.50;99.90;;;;;;5004710;28;20089;-75
2022/10/06 02:12:34;;;;;;;;;;;12.50;99.90;;;;;;5005208;28;19910;-74
2022/10/06 02:15:00;;;;;;;;;;;12.40;99.90;;;;;;5004054;28;19910;-74
2022/10/06 02:17:26;;;;;;;;;;;12.50;99.90;;;;;;5004852;28;20147;-75
2022/10/06 02:19:51;;;;;;;;;;;12.50;99.90;;;;;;5003983;28;19917;-75
2022/10/06 02:22:17;;;;;;;;;;;12.40;99.90;;;;;;5004851;28;19917;-74
2022/10/06 02:24:45;;;;;;;;;;;12.50;99.90;;;;;;5004422;28;20056;-74
2022/10/06 02:27:11;;;;;;;;;;;12.50;99.90;;;;;;5004568;28;19984;-74
2022/10/06 02:29:37;;;;;;;;;;;12.40;99.90;;;;;;5004840;28;19922;-73
2022/10/06 02:32:02;;;;;;;;;;;12.40;99.90;;;;;;5004876;28;19964;-74
2022/10/06 02:34:28;;;;;;;;;;;12.50;99.90;;;;;;5004787;28;19910;-74
2022/10/06 02:36:54;;;;;;;;;;;12.40;99.90;;;;;;5004275;28;19917;-73
2022/10/06 02:39:19;;;;;;;;;;;12.40;99.90;;;;;;5003223;28;20224;-74
2022/10/06 02:41:45;;;;;;;;;;;12.40;99.90;;;;;;5003730;28;20224;-74
2022/10/06 02:44:11;;;;;;;;;;;12.50;99.90;;;;;;5004419;28;20113;-74
2022/10/06 02:46:36;;;;;;;;;;;12.40;99.90;;;;;;5003074;28;19976;-74
2022/10/06 02:49:02;;;;;;;;;;;12.50;99.90;;;;;;5003157;28;19922;-73
2022/10/06 02:51:30;;;;;;;;;;;12.40;99.90;;;;;;5004424;28;19918;-74
2022/10/06 02:53:55;;;;;;;;;;;12.40;99.90;;;;;;5004070;28;19910;-74
2022/10/06 02:56:22;;;;;;;;;;;12.40;99.90;;;;;;5004084;28;19973;-74
2022/10/06 02:58:48;;;;;;;;;;;12.50;99.90;;;;;;5003117;28;20166;-74
2022/10/06 03:01:19;;;;;;;;;;;12.50;99.90;;;;;;5003042;28;19910;-73
2022/10/06 03:03:48;;;;;;;;;;;12.40;99.90;;;;;;5003059;28;19910;-73
2022/10/06 03:06:32;;;;;;;;;;;12.40;99.90;;;;;;5002718;28;19910;-73
2022/10/06 03:08:59;;;;;;;;;;;12.40;99.90;;;;;;5003644;28;19921;-73
2022/10/06 03:11:29;;;;;;;;;;;12.40;99.90;;;;;;5003013;28;19949;-74
2022/10/06 03:13:56;;;;;;;;;;;12.40;99.90;;;;;;5003950;28;19984;-74
2022/10/06 03:16:50;;;;;;;;;;;12.40;99.90;;;;;;5002728;28;20185;-74
2022/10/06 03:19:15;;;;;;;;;;;12.40;99.90;;;;;;5002630;28;19941;-74
2022/10/06 03:21:41;;;;;;;;;;;12.40;99.90;;;;;;5002861;28;20231;-74
2022/10/06 03:24:07;;;;;;;;;;;12.40;99.90;;;;;;5002026;28;19949;-73
2022/10/06 03:26:35;;;;;;;;;;;12.30;99.90;;;;;;5018919;28;19973;-73
2022/10/06 03:29:00;;;;;;;;;;;12.30;99.90;;;;;;5003565;28;19970;-73
2022/10/06 03:31:26;;;;;;;;;;;12.30;99.90;;;;;;5018840;28;20204;-73
2022/10/06 03:33:53;;;;;;;;;;;12.30;99.90;;;;;;5018887;28;19921;-73
2022/10/06 03:36:20;;;;;;;;;;;12.30;99.90;;;;;;5003480;28;19910;-73
2022/10/06 03:38:45;;;;;;;;;;;12.30;99.90;;;;;;5018376;28;19915;-73
2022/10/06 03:41:13;;;;;;;;;;;12.30;99.90;;;;;;5018890;28;19917;-73
2022/10/06 03:43:39;;;;;;;;;;;12.20;99.90;;;;;;5002423;28;20116;-73
2022/10/06 03:46:05;;;;;;;;;;;12.20;99.90;;;;;;5018613;28;19920;-73
2022/10/06 03:48:33;;;;;;;;;;;12.10;99.90;;;;;;5018675;28;20185;-73
2022/10/06 03:51:00;;;;;;;;;;;12.00;99.90;;;;;;5003393;28;19914;-73
2022/10/06 03:53:29;;;;;;;;;;;12.00;99.90;;;;;;5003159;28;19913;-73
2022/10/06 03:56:06;;;;;;;;;;;11.90;99.90;;;;;;5002304;28;19909;-74
2022/10/06 03:58:33;;;;;;;;;;;11.90;99.90;;;;;;5018405;28;19914;-73
2022/10/06 04:01:04;;;;;;;;;;;11.90;99.90;;;;;;5018548;28;19910;-73
2022/10/06 04:03:30;;;;;;;;;;;11.90;99.90;;;;;;5003398;28;20000;-73
2022/10/06 04:05:56;;;;;;;;;;;11.90;99.90;;;;;;5002123;28;19917;-74
2022/10/06 04:08:25;;;;;;;;;;;11.90;99.90;;;;;;5001687;28;19960;-73
2022/10/06 04:10:51;;;;;;;;;;;11.90;99.90;;;;;;5003298;28;20120;-74
2022/10/06 04:13:17;;;;;;;;;;;12.00;99.90;;;;;;5002358;28;19910;-74
2022/10/06 04:15:43;;;;;;;;;;;12.00;99.90;;;;;;5002314;28;19981;-74
2022/10/06 04:18:10;;;;;;;;;;;12.00;99.90;;;;;;5002925;28;20243;-73
2022/10/06 04:20:36;;;;;;;;;;;12.00;99.90;;;;;;5002177;28;20252;-74
2022/10/06 04:23:01;;;;;;;;;;;12.00;99.90;;;;;;5003051;28;19937;-74
2022/10/06 04:25:27;;;;;;;;;;;12.00;99.90;;;;;;5003127;28;19918;-74
2022/10/06 04:27:53;;;;;;;;;;;12.00;99.90;;;;;;5002883;28;20124;-74
2022/10/06 04:30:18;;;;;;;;;;;12.00;99.90;;;;;;5003118;28;19914;-74
2022/10/06 04:32:44;;;;;;;;;;;12.00;99.90;;;;;;5002205;28;19916;-73
2022/10/06 04:35:10;;;;;;;;;;;12.00;99.90;;;;;;5003168;28;19921;-74
2022/10/06 04:37:36;;;;;;;;;;;12.00;99.90;;;;;;5001338;28;20208;-74
2022/10/06 04:40:02;;;;;;;;;;;12.00;99.90;;;;;;5003090;28;19952;-74
2022/10/06 04:42:28;;;;;;;;;;;11.90;99.90;;;;;;4985884;28;19917;-73
2022/10/06 04:44:54;;;;;;;;;;;11.90;99.90;;;;;;5003047;28;19910;-73
2022/10/06 04:47:20;;;;;;;;;;;11.90;99.90;;;;;;5002871;28;19917;-73
2022/10/06 04:49:45;;;;;;;;;;;12.00;99.90;;;;;;5001847;28;19914;-73
2022/10/06 04:52:11;;;;;;;;;;;12.00;99.90;;;;;;5003132;28;19949;-74
2022/10/06 04:54:37;;;;;;;;;;;12.00;99.90;;;;;;5003057;28;19918;-73
2022/10/06 04:57:02;;;;;;;;;;;12.00;99.90;;;;;;5009582;28;19917;-73
2022/10/06 05:02:12;;;;;;;;;;;12.00;99.90;;;;;;5014820;28;19948;-75
2022/10/06 05:04:38;;;;;;;;;;;12.00;99.90;;;;;;5016752;28;19909;-74
2022/10/06 05:07:04;;;;;;;;;;;12.10;99.90;;;;;;5017823;28;19913;-77
2022/10/06 05:09:30;;;;;;;;;;;12.10;99.90;;;;;;5011540;28;20121;-77
2022/10/06 05:11:56;;;;;;;;;;;12.10;99.90;;;;;;5006524;28;19910;-78
2022/10/06 05:14:22;;;;;;;;;;;12.10;99.90;;;;;;5006055;28;19924;-78
2022/10/06 05:16:48;;;;;;;;;;;12.10;99.90;;;;;;5007215;28;19941;-79
2022/10/06 05:19:13;;;;;;;;;;;12.20;99.90;;;;;;5007323;28;19909;-77
2022/10/06 05:21:39;;;;;;;;;;;12.20;99.90;;;;;;5007346;28;20219;-79
2022/10/06 05:24:05;;;;;;;;;;;12.20;99.90;;;;;;5005074;28;19910;-76
2022/10/06 05:26:31;;;;;;;;;;;12.20;99.90;;;;;;5021231;28;19977;-76
2022/10/06 05:28:57;;;;;;;;;;;12.20;99.90;;;;;;5004616;28;20124;-76
2022/10/06 05:31:30;;;;;;;;;;;12.30;99.90;;;;;;5021170;28;19949;-76
2022/10/06 05:33:57;;;;;;;;;;;12.30;99.90;;;;;;5004371;28;19909;-76
2022/10/06 05:36:24;;;;;;;;;;;12.30;99.90;;;;;;5020913;28;19918;-75
2022/10/06 05:38:50;;;;;;;;;;;12.30;99.90;;;;;;5020729;28;19921;-75
2022/10/06 05:41:17;;;;;;;;;;;12.30;99.90;;;;;;5005938;28;19910;-76
2022/10/06 05:43:43;;;;;;;;;;;12.30;99.90;;;;;;5020879;28;20180;-76
2022/10/06 05:46:35;;;;;;;;;;;12.30;99.90;;;;;;5020917;28;19909;-76
2022/10/06 05:49:02;;;;;;;;;;;12.30;99.90;;;;;;5004185;28;19956;-75
2022/10/06 05:51:29;;;;;;;;;;;12.30;99.90;;;;;;5020629;28;19924;-76
2022/10/06 05:53:54;;;;;;;;;;;12.40;99.90;;;;;;5020474;28;20108;-75
2022/10/06 05:56:21;;;;;;;;;;;12.50;99.90;;;;;;5005310;28;19916;-75
2022/10/06 05:58:49;;;;;;;;;;;12.50;99.90;;;;;;5004178;28;20124;-76
2022/10/06 06:01:15;;;;;;;;;;;12.50;99.90;;;;;;5004301;28;20003;-76
2022/10/06 06:03:42;;;;;;;;;;;12.60;99.90;;;;;;5012403;28;19918;-76
2022/10/06 06:06:33;;;;;;;;;;;12.60;99.90;;;;;;5005390;28;19922;-76
2022/10/06 06:09:02;;;;;;;;;;;12.60;99.90;;;;;;5002737;28;20090;-75
2022/10/06 06:11:30;;;;;;;;;;;12.70;99.90;;;;;;5005311;28;19996;-75
2022/10/06 06:14:03;;;;;;;;;;;12.60;99.90;;;;;;5020030;28;19916;-76
2022/10/06 06:16:32;;;;;;;;;;;12.70;99.90;;;;;;5008530;28;19910;-75
2022/10/06 06:18:58;;;;;;;;;;;12.70;99.90;;;;;;5020033;28;19918;-76
2022/10/06 06:21:24;;;;;;;;;;;12.70;99.90;;;;;;5020263;28;19977;-75
2022/10/06 06:23:50;;;;;;;;;;;12.80;99.90;;;;;;5020164;28;19917;-75
2022/10/06 06:26:22;;;;;;;;;;;12.80;99.90;;;;;;5004669;28;19910;-75
2022/10/06 06:28:49;;;;;;;;;;;12.80;99.90;;;;;;5004472;28;19918;-77
2022/10/06 06:31:20;;;;;;;;;;;12.80;99.90;;;;;;5020186;28;19917;-76
2022/10/06 06:33:46;;;;;;;;;;;12.90;99.90;;;;;;5001631;28;19917;-75
2022/10/06 06:36:16;;;;;;;;;;;12.90;99.90;;;;;;4988353;28;20228;-76
2022/10/06 06:38:44;;;;;;;;;;;12.90;99.90;;;;;;5005559;28;19977;-79
2022/10/06 06:41:24;;;;;;;;;;;12.90;99.90;;;;;;4989422;28;20090;-78
2022/10/06 06:43:50;;;;;;;;;;;13.00;99.90;;;;;;4989631;28;19910;-77
2022/10/06 06:46:16;;;;;;;;;;;13.00;99.90;;;;;;4988377;28;19973;-77
2022/10/06 06:48:42;;;;;;;;;;;13.00;99.90;;;;;;5003782;28;20291;-78
2022/10/06 06:51:10;;;;;;;;;;;13.10;99.90;;;;;;4988028;28;19917;-77
2022/10/06 06:53:36;;;;;;;;;;;13.20;99.90;;;;;;5002982;28;19910;-77
2022/10/06 06:56:03;;;;;;;;;;;13.20;99.90;;;;;;5003226;28;19925;-77
2022/10/06 06:58:29;;;;;;;;;;;13.30;99.90;;;;;;5003231;28;19910;-77
2022/10/06 07:01:03;;;;;;;;;;;13.40;99.90;;;;;;5003358;28;20004;-76
2022/10/06 07:03:29;;;;;;;;;;;13.40;99.90;;;;;;5002722;28;19916;-77
2022/10/06 07:06:07;;;;;;;;;;;13.50;99.90;;;;;;5003767;28;19910;-75
2022/10/06 07:08:33;;;;;;;;;;;13.60;99.90;;;;;;5003496;28;19917;-74
2022/10/06 07:10:58;;;;;;;;;;;13.70;99.90;;;;;;5003510;28;19913;-76
2022/10/06 07:13:24;;;;;;;;;;;13.80;99.90;;;;;;5002822;28;19909;-77
2022/10/06 07:27:05;;;;;;;;;;;14.30;99.90;;;;;;5001777;28;19974;-77
2022/10/06 07:29:31;;;;;;;;;;;14.30;99.90;;;;;;5002477;28;20151;-75
2022/10/06 07:31:56;;;;;;;;;;;14.40;99.90;;;;;;5003492;28;19910;-77
2022/10/06 07:34:22;;;;;;;;;;;14.40;99.90;;;;;;5006405;28;19984;-80
2022/10/06 07:36:52;;;;;;;;;;;14.50;99.90;;;;;;5005138;28;19989;-77
2022/10/06 07:39:19;;;;;;;;;;;14.50;99.90;;;;;;5004042;28;20141;-74
2022/10/06 07:41:44;;;;;;;;;;;14.50;99.90;;;;;;5003802;28;20264;-75
2022/10/06 07:44:10;;;;;;;;;;;14.50;99.90;;;;;;5003864;28;19910;-75
2022/10/06 07:46:36;;;;;;;;;;;14.50;99.90;;;;;;5002949;28;20104;-75
2022/10/06 07:49:01;;;;;;;;;;;14.50;99.90;;;;;;5003265;28;19918;-75
2022/10/06 07:51:27;;;;;;;;;;;14.60;99.90;;;;;;5003484;28;20204;-76
2022/10/06 07:53:53;;;;;;;;;;;14.60;99.90;;;;;;5018231;28;19917;-74
2022/10/06 07:56:19;;;;;;;;;;;14.60;99.90;;;;;;5002833;28;19925;-81
2022/10/06 07:58:46;;;;;;;;;;;14.60;99.90;;;;;;5004904;28;19910;-78
2022/10/06 08:01:12;;;;;;;;;;;14.70;99.90;;;;;;5004445;28;19910;-76
2022/10/06 08:03:41;;;;;;;;;;;14.70;99.90;;;;;;5002405;28;19917;-71
2022/10/06 08:06:13;;;;;;;;;;;14.70;99.90;;;;;;5001993;28;19918;-74
2022/10/06 08:08:38;;;;;;;;;;;14.70;99.90;;;;;;5001793;28;19973;-75
2022/10/06 08:11:04;;;;;;;;;;;14.60;99.90;;;;;;5002113;28;19925;-75
2022/10/06 08:13:33;;;;;;;;;;;14.60;99.90;;;;;;5002199;28;19910;-74
2022/10/06 08:16:09;;;;;;;;;;;14.70;99.90;;;;;;5001153;28;19917;-73
2022/10/06 08:18:35;;;;;;;;;;;14.60;99.90;;;;;;5003118;28;19910;-74
2022/10/06 08:21:33;;;;;;;;;;;14.70;99.90;;;;;;5001723;28;19984;-74
2022/10/06 08:23:59;;;;;;;;;;;14.60;99.90;;;;;;4995134;28;19917;-73
2022/10/06 08:26:25;;;;;;;;;;;14.60;99.90;;;;;;5002459;28;20148;-73
2022/10/06 08:28:52;;;;;;;;;;;14.60;99.90;;;;;;5002179;28;19917;-79
2022/10/06 08:31:20;;;;;;;;;;;14.60;99.90;;;;;;5003292;28;19917;-83
2022/10/06 08:33:46;;;;;;;;;;;14.60;99.90;;;;;;4987313;28;19980;-80
2022/10/06 08:36:13;;;;;;;;;;;14.60;99.90;;;;;;5003684;28;20125;-82
2022/10/06 08:38:39;;;;;;;;;;;14.60;99.90;;;;;;5005798;28;19914;-80
2022/10/06 08:41:23;;;;;;;;;;;14.60;99.90;;;;;;5007317;28;19932;-82
2022/10/06 08:43:54;;;;;;;;;;;14.60;99.90;;;;;;5005930;28;19910;-77
2022/10/06 08:46:20;;;;;;;;;;;14.70;99.90;;;;;;5004888;28;20324;-75
2022/10/06 08:48:46;;;;;;;;;;;14.70;99.90;;;;;;4973379;28;19913;-79
2022/10/06 08:51:20;;;;;;;;;;;14.80;99.90;;;;;;4973458;28;19910;-77
2022/10/06 08:54:01;;;;;;;;;;;14.90;99.90;;;;;;5006535;28;19917;-78
2022/10/06 08:56:58;;;;;;;;;;;15.00;99.90;;;;;;4993989;28;19914;-82
2022/10/06 08:59:23;;;;;;;;;;;15.10;99.90;;;;;;4992796;28;19914;-84
2022/10/06 09:01:50;;;;;;;;;;;15.20;99.90;;;;;;5009965;28;19948;-74
2022/10/06 09:04:27;;;;;;;;;;;15.40;99.90;;;;;;5004962;28;19914;-74
2022/10/06 09:07:11;;;;;;;;;;;15.40;99.90;;;;;;5004196;28;19917;-77
2022/10/06 09:09:59;;;;;;;;;;;15.40;99.90;;;;;;5004655;28;19914;-77
2022/10/06 09:12:26;;;;;;;;;;;15.50;99.90;;;;;;5009481;28;19921;-79
2022/10/06 09:14:55;;;;;;;;;;;15.60;99.90;;;;;;5010273;28;19910;-77
2022/10/06 09:17:48;;;;;;;;;;;15.70;99.90;;;;;;5009072;28;19910;-77
2022/10/06 09:20:42;;;;;;;;;;;15.70;99.90;;;;;;5005414;28;20090;-76
2022/10/06 09:23:15;;;;;;;;;;;15.70;99.90;;;;;;4988476;28;19918;-77
2022/10/06 09:25:41;;;;;;;;;;;15.70;99.90;;;;;;4989200;28;19910;-77
2022/10/06 09:28:10;;;;;;;;;;;15.70;99.90;;;;;;5006162;28;19909;-74
2022/10/06 09:30:36;;;;;;;;;;;15.70;99.90;;;;;;5004586;28;19952;-75
2022/10/06 09:33:02;;;;;;;;;;;15.70;99.90;;;;;;5004429;28;20228;-74
2022/10/06 09:35:29;;;;;;;;;;;15.70;99.90;;;;;;5001810;28;19953;-73
2022/10/06 09:37:55;;;;;;;;;;;15.70;99.90;;;;;;4995441;28;20210;-74
2022/10/06 09:40:40;;;;;;;;;;;15.70;99.90;;;;;;5020283;28;20424;-73
2022/10/06 09:43:26;;;;;;;;;;;15.80;99.90;;;;;;5004986;28;19910;-74
2022/10/06 09:45:53;;;;;;;;;;;15.90;99.90;;;;;;5004334;28;20113;-74
2022/10/06 09:48:25;;;;;;;;;;;16.20;99.90;;;;;;5003930;28;19913;-75
2022/10/06 09:51:17;;;;;;;;;;;16.40;99.90;;;;;;5005041;28;20125;-73
2022/10/06 09:53:43;;;;;;;;;;;16.50;99.90;;;;;;4997413;28;19918;-74
2022/10/06 09:56:20;;;;;;;;;;;16.80;99.90;;;;;;5003812;28;19909;-73
2022/10/06 09:58:56;;;;;;;;;;;17.00;99.90;;;;;;5004218;28;19933;-73
2022/10/06 10:01:26;;;;;;;;;;;17.10;99.90;;;;;;5003785;28;20086;-73
2022/10/06 10:03:53;;;;;;;;;;;17.20;99.90;;;;;;5004053;28;20331;-74
2022/10/06 10:06:29;;;;;;;;;;;17.20;99.90;;;;;;5003623;28;19933;-74
2022/10/06 10:09:23;;;;;;;;;;;17.30;99.90;;;;;;4987464;28;19944;-73
2022/10/06 10:12:23;;;;;;;;;;;17.20;99.90;;;;;;5004727;28;19930;-73
2022/10/06 10:14:52;;;;;;;;;;;17.20;99.90;;;;;;4990829;28;19910;-74
2022/10/06 10:17:38;;;;;;;;;;;17.10;99.90;;;;;;4998060;28;20094;-74
2022/10/06 10:20:33;;;;;;;;;;;17.20;99.90;;;;;;5003945;28;19994;-74
2022/10/06 10:23:23;;;;;;;;;;;17.10;99.90;;;;;;5000059;28;19938;-73
2022/10/06 10:26:07;;;;;;;;;;;17.10;99.90;;;;;;5003446;28;19920;-73
2022/10/06 10:28:49;;;;;;;;;;;17.20;99.90;;;;;;5004758;28;19924;-74
2022/10/06 10:31:49;;;;;;;;;;;17.30;99.90;;;;;;5018353;28;20232;-74
2022/10/06 10:34:17;;;;;;;;;;;17.50;99.90;;;;;;5003941;28;19976;-77
2022/10/06 10:36:55;;;;;;;;;;;17.70;99.90;;;;;;5002094;28;20227;-75
2022/10/06 10:39:42;;;;;;;;;;;17.90;99.90;;;;;;4987673;28;19910;-74
2022/10/06 10:42:20;;;;;;;;;;;18.10;99.90;;;;;;4986977;28;20102;-74
2022/10/06 10:45:01;;;;;;;;;;;18.40;99.90;;;;;;5007046;28;19988;-80
2022/10/06 10:47:30;;;;;;;;;;;18.60;99.90;;;;;;5003274;28;19972;-75
2022/10/06 10:50:04;;;;;;;;;;;18.90;99.90;;;;;;4987010;28;19913;-75
2022/10/06 10:52:32;;;;;;;;;;;19.10;99.90;;;;;;4987471;28;19909;-76
2022/10/06 10:55:16;;;;;;;;;;;19.40;99.90;;;;;;4970853;28;19941;-76
2022/10/06 10:57:42;;;;;;;;;;;19.70;99.90;;;;;;5002679;28;19914;-76
2022/10/06 11:00:19;;;;;;;;;;;19.90;99.90;;;;;;5003214;28;19932;-76
2022/10/06 11:02:45;;;;;;;;;;;20.20;99.90;;;;;;5002032;28;20111;-76
2022/10/06 11:05:23;;;;;;;;;;;20.50;99.90;;;;;;5003975;28;19933;-76
2022/10/06 11:08:28;;;;;;;;;;;20.80;99.90;;;;;;5003255;28;19920;-76
2022/10/06 11:10:59;;;;;;;;;;;21.30;99.90;;;;;;4982439;28;19914;-76
2022/10/06 11:13:36;;;;;;;;;;;22.00;99.90;;;;;;4966312;28;20260;-77
2022/10/06 11:16:16;;;;;;;;;;;22.40;99.90;;;;;;4985995;28;20259;-77
2022/10/06 11:19:01;;;;;;;;;;;22.60;99.90;;;;;;5003794;28;19924;-76
2022/10/06 11:21:39;;;;;;;;;;;22.60;99.90;;;;;;5003949;28;19964;-76
2022/10/06 11:24:31;;;;;;;;;;;22.10;99.90;;;;;;5003616;28;19937;-76
2022/10/06 11:27:07;;;;;;;;;;;21.50;99.90;;;;;;4998902;28;20471;-75
2022/10/06 11:30:08;;;;;;;;;;;21.30;99.90;;;;;;4984165;28;19929;-76
2022/10/06 11:33:00;;;;;;;;;;;21.70;99.90;;;;;;4980267;28;19957;-76
2022/10/06 11:35:28;;;;;;;;;;;22.40;99.90;;;;;;4987253;28;19985;-77
2022/10/06 11:37:59;;;;;;;;;;;23.30;99.90;;;;;;4996653;28;20284;-76
2022/10/06 11:40:38;;;;;;;;;;;23.90;99.90;;;;;;4983600;28;19985;-77
2022/10/06 11:43:16;;;;;;;;;;;24.60;99.90;;;;;;4983473;28;19981;-78
2022/10/06 11:45:58;;;;;;;;;;;24.90;99.90;;;;;;4983596;28;19910;-77
2022/10/06 11:48:28;;;;;;;;;;;24.80;96.50;;;;;;4983457;28;19910;-76
2022/10/06 11:50:55;;;;;;;;;;;25.30;96.40;;;;;;4999516;28;19921;-77
2022/10/06 11:53:30;;;;;;;;;;;25.90;90.60;;;;;;5000878;28;19917;-77
2022/10/06 11:56:15;;;;;;;;;;;26.20;77.80;;;;;;5000913;28;19910;-77
2022/10/06 11:58:53;;;;;;;;;;;26.40;80.60;;;;;;5003431;28;19998;-77
2022/10/06 12:01:35;;;;;;;;;;;26.80;79.40;;;;;;4985570;28;19994;-77
2022/10/06 12:04:20;;;;;;;;;;;26.90;76.30;;;;;;4985615;28;19933;-77
2022/10/06 12:06:46;;;;;;;;;;;27.50;79.20;;;;;;4992066;28;19917;-77
2022/10/06 12:09:29;;;;;;;;;;;28.30;70.20;;;;;;5007427;28;20272;-76
2022/10/06 12:11:58;;;;;;;;;;;28.70;69.00;;;;;;5009566;28;19916;-77
2022/10/06 12:14:33;;;;;;;;;;;29.70;60.80;;;;;;5014799;28;19941;-77
2022/10/06 12:17:22;;;;;;;;;;;29.90;60.90;;;;;;5015540;28;19917;-77
2022/10/06 12:20:18;;;;;;;;;;;30.50;77.60;;;;;;4987298;28;19945;-77
2022/10/06 12:22:49;;;;;;;;;;;31.10;55.60;;;;;;5018938;28;19933;-77
2022/10/06 12:25:20;;;;;;;;;;;31.70;52.20;;;;;;4993660;28;19917;-75
2022/10/06 12:28:13;;;;;;;;;;;32.30;50.20;;;;;;5007837;28;19918;-75
2022/10/06 12:31:07;;;;;;;;;;;32.40;48.50;;;;;;5024946;28;19913;-75
2022/10/06 12:33:37;;;;;;;;;;;31.90;46.10;;;;;;5009385;28;19972;-75
2022/10/06 12:36:30;;;;;;;;;;;31.50;48.20;;;;;;5008272;28;19917;-74
2022/10/06 12:39:20;;;;;;;;;;;31.50;47.20;;;;;;5001985;28;19918;-77
2022/10/06 12:42:01;;;;;;;;;;;32.10;48.80;;;;;;4992377;28;19917;-77
2022/10/06 12:44:35;;;;;;;;;;;32.60;47.80;;;;;;5009652;28;19917;-77
2022/10/06 12:47:02;;;;;;;;;;;33.30;47.80;;;;;;4976813;28;20109;-76
2022/10/06 12:49:49;;;;;;;;;;;34.10;55.30;;;;;;5009653;28;19921;-79
2022/10/06 12:52:43;;;;;;;;;;;34.30;43.10;;;;;;4993439;28;19909;-79
2022/10/06 12:55:36;;;;;;;;;;;34.70;39.80;;;;;;5008925;28;19910;-78
2022/10/06 12:58:02;;;;;;;;;;;35.10;45.50;;;;;;5010505;28;20116;-81
2022/10/06 13:00:38;;;;;;;;;;;35.90;35.10;;;;;;5009555;28;19925;-83
2022/10/06 13:03:05;;;;;;;;;;;35.50;34.40;;;;;;5009929;28;19917;-81
2022/10/06 13:05:35;;;;;;;;;;;34.40;35.00;;;;;;5009491;28;19961;-82
2022/10/06 13:08:04;;;;;;;;;;;33.80;37.10;;;;;;4997061;28;19973;-81
2022/10/06 13:10:31;;;;;;;;;;;33.40;38.40;;;;;;5027918;28;19989;-79
2022/10/06 13:12:57;;;;;;;;;;;33.30;37.80;;;;;;5026693;28;19949;-76
2022/10/06 13:15:27;;;;;;;;;;;33.10;36.80;;;;;;5024441;28;19972;-76
2022/10/06 13:17:57;;;;;;;;;;;32.90;38.90;;;;;;5008551;28;19910;-77
2022/10/06 13:20:35;;;;;;;;;;;33.30;38.90;;;;;;5025777;28;20030;-77
2022/10/06 13:23:23;;;;;;;;;;;34.00;37.80;;;;;;5012065;28;19949;-77
2022/10/06 13:25:51;;;;;;;;;;;34.90;36.60;;;;;;5005539;28;20204;-78
2022/10/06 13:28:18;;;;;;;;;;;35.40;35.80;;;;;;5008410;28;19977;-74
2022/10/06 13:30:49;;;;;;;;;;;36.00;34.10;;;;;;5004465;28;19920;-73
2022/10/06 13:33:14;;;;;;;;;;;36.80;32.30;;;;;;5004578;28;19910;-74
2022/10/06 13:35:40;;;;;;;;;;;36.80;29.30;;;;;;5005864;28;19909;-72
2022/10/06 13:38:05;;;;;;;;;;;36.80;27.90;;;;;;5002133;28;19913;-74
2022/10/06 13:40:32;;;;;;;;;;;36.70;29.20;;;;;;5005434;28;19976;-74
2022/10/06 13:43:01;;;;;;;;;;;37.30;29.00;;;;;;5003919;28;20128;-75
2022/10/06 13:45:26;;;;;;;;;;;37.70;28.40;;;;;;5005696;28;19981;-75
2022/10/06 13:48:24;;;;;;;;;;;37.70;27.30;;;;;;5003908;28;19924;-74
2022/10/06 13:50:51;;;;;;;;;;;38.30;26.90;;;;;;5000537;28;19921;-75
2022/10/06 13:53:22;;;;;;;;;;;38.40;26.30;;;;;;4988099;28;19914;-74
2022/10/06 13:55:48;;;;;;;;;;;38.60;25.50;;;;;;5004656;28;19922;-74
2022/10/06 13:58:17;;;;;;;;;;;38.90;24.40;;;;;;5003928;28;20108;-74
2022/10/06 14:00:59;;;;;;;;;;;38.30;24.20;;;;;;5005208;28;20197;-74
2022/10/06 14:03:34;;;;;;;;;;;38.10;24.40;;;;;;5005112;28;19910;-74
2022/10/06 14:06:05;;;;;;;;;;;38.30;24.10;;;;;;5003732;28;19976;-73
2022/10/06 14:08:30;;;;;;;;;;;38.10;24.40;;;;;;5002584;28;19916;-72
2022/10/06 14:11:04;;;;;;;;;;;38.00;24.40;;;;;;5004763;28;19921;-73
2022/10/06 14:13:33;;;;;;;;;;;37.70;25.60;;;;;;4989108;28;20109;-74
2022/10/06 14:16:08;;;;;;;;;;;37.40;25.80;;;;;;4972391;28;19917;-74
2022/10/06 14:18:44;;;;;;;;;;;37.30;25.40;;;;;;4987938;28;19981;-74
2022/10/06 14:21:35;;;;;;;;;;;37.30;24.90;;;;;;5003571;28;19917;-69
2022/10/06 14:24:19;;;;;;;;;;;36.70;25.10;;;;;;5002761;28;19917;-71
2022/10/06 14:26:45;;;;;;;;;;;36.30;26.30;;;;;;5003136;28;19985;-71
2022/10/06 14:29:12;;;;;;;;;;;36.20;26.70;;;;;;5004552;28;19910;-71
2022/10/06 14:31:38;;;;;;;;;;;36.10;26.80;;;;;;5004426;28;19925;-71
2022/10/06 14:34:04;;;;;;;;;;;35.70;26.90;;;;;;5004575;28;19910;-70
2022/10/06 14:36:31;;;;;;;;;;;34.50;28.00;;;;;;5003179;28;19917;-71
2022/10/06 14:38:57;;;;;;;;;;;33.10;29.60;;;;;;5004183;28;19914;-71
2022/10/06 14:41:26;;;;;;;;;;;31.40;32.40;;;;;;5004379;28;19917;-71
2022/10/06 14:43:56;;;;;;;;;;;29.90;36.60;;;;;;5002999;28;19917;-73
2022/10/06 14:46:23;;;;;;;;;;;28.40;37.40;;;;;;5003221;28;19916;-72
2022/10/06 14:48:50;;;;;;;;;;;27.20;38.20;;;;;;4987361;28;19961;-72
2022/10/06 14:51:16;;;;;;;;;;;26.00;42.90;;;;;;4983841;28;19918;-71
2022/10/06 14:53:41;;;;;;;;;;;25.10;47.10;;;;;;4993723;28;19909;-73